createdAt,value
2018-01-03T17:22:20.201Z,9.21
2018-01-03T17:23:20.547Z,9.1
2018-01-03T17:24:30.368Z,9.02
2018-01-03T17:25:31.936Z,8.96
2018-01-03T17:26:30.559Z,8.89
2018-01-03T17:27:31.196Z,8.85
2018-01-03T17:28:30.127Z,8.8
2018-01-03T17:29:30.474Z,8.75
2018-01-03T17:30:31.041Z,8.72
2018-01-03T17:31:30.384Z,8.68
2018-01-03T17:32:30.749Z,8.65
2018-01-03T17:33:31.680Z,8.58
2018-01-03T17:34:31.683Z,8.57
2018-01-03T17:35:48.805Z,8.55
2018-01-03T17:36:49.227Z,8.52
2018-01-03T17:37:48.636Z,8.49
2018-01-03T17:38:52.810Z,8.48
2018-01-03T17:39:49.238Z,8.44
2018-01-03T17:40:48.553Z,8.43
2018-01-03T17:41:48.953Z,8.4
2018-01-03T17:42:49.203Z,8.4
2018-01-03T17:43:49.349Z,8.4
2018-01-03T17:44:48.946Z,8.37
2018-01-03T17:45:49.287Z,8.34
2018-01-03T17:46:49.042Z,8.37
2018-01-03T17:47:49.364Z,8.34
2018-01-03T17:48:48.724Z,8.36
2018-01-03T17:49:49.047Z,8.31
2018-01-03T17:50:49.326Z,8.36
2018-01-03T17:51:48.559Z,8.33
2018-01-03T17:52:48.756Z,8.33
2018-01-03T17:53:49.101Z,8.34
2018-01-03T17:54:49.380Z,8.36
2018-01-03T17:55:48.804Z,8.36
2018-01-03T17:56:49.245Z,8.36
2018-01-03T17:57:48.755Z,8.33
2018-01-03T17:58:49.088Z,8.36
2018-01-03T17:59:49.460Z,8.36
2018-01-03T18:00:48.732Z,8.36
2018-01-03T18:01:48.987Z,8.37
2018-01-03T18:02:49.341Z,8.38
2018-01-03T18:03:48.710Z,8.38
2018-01-03T18:04:49.286Z,8.37
2018-01-03T18:05:48.687Z,8.4
2018-01-03T18:06:48.815Z,8.41
2018-01-03T18:07:49.024Z,8.4
2018-01-03T18:08:49.481Z,8.37
2018-01-03T18:09:48.783Z,8.38
2018-01-03T18:10:48.857Z,8.37
2018-01-03T18:11:49.098Z,8.36
2018-01-03T18:12:49.340Z,8.37
2018-01-03T18:13:49.625Z,8.34
2018-01-03T18:14:49.136Z,8.37
2018-01-03T18:15:49.355Z,8.36
2018-01-03T18:16:48.805Z,8.34
2018-01-03T18:17:49.057Z,8.36
2018-01-03T18:18:49.278Z,8.33
2018-01-03T18:19:48.877Z,8.34
2018-01-03T18:20:49.283Z,8.34
2018-01-03T18:21:49.572Z,8.37
2018-01-03T18:22:48.782Z,8.36
2018-01-03T18:23:49.123Z,8.37
2018-01-03T18:24:49.357Z,8.41
2018-01-03T18:25:49.733Z,8.41
2018-01-03T18:26:49.163Z,8.4
2018-01-03T18:27:49.653Z,8.38
2018-01-03T18:28:49.133Z,8.38
2018-01-03T18:29:49.650Z,8.4
2018-01-03T18:30:49.307Z,8.4
2018-01-03T18:31:49.686Z,8.37
2018-01-03T18:32:49.319Z,8.4
2018-01-03T18:33:49.676Z,8.37
2018-01-03T18:34:48.982Z,8.38
2018-01-03T18:35:49.271Z,8.38
2018-01-03T18:36:48.582Z,8.4
2018-01-03T18:37:49.021Z,8.41
2018-01-03T18:38:48.344Z,8.4
2018-01-03T18:39:48.726Z,8.41
2018-01-03T18:40:48.492Z,8.37
2018-01-03T18:41:48.904Z,8.41
2018-01-03T18:42:49.287Z,8.41
2018-01-03T18:43:48.808Z,8.4
2018-01-03T18:44:49.261Z,8.43
2018-01-03T18:45:48.645Z,8.44
2018-01-03T18:46:49.318Z,8.44
2018-01-03T18:47:48.950Z,8.45
2018-01-03T18:48:48.482Z,8.47
2018-01-03T18:49:48.854Z,8.43
2018-01-03T18:50:49.169Z,8.47
2018-01-03T18:51:48.896Z,8.43
2018-01-03T18:52:34.532Z,8.47
2018-01-03T18:53:34.952Z,8.47
2018-01-03T18:54:34.705Z,8.45
2018-01-03T18:55:35.203Z,8.47
2018-01-03T18:56:34.804Z,8.45
2018-01-03T18:57:35.646Z,8.48
2018-01-03T18:58:35.154Z,8.47
2018-01-03T18:59:34.739Z,8.49
2018-01-03T19:00:35.418Z,8.51
2018-01-03T19:01:34.914Z,8.51
2018-01-03T19:02:35.262Z,8.54
2018-01-03T19:03:35.560Z,8.55
2018-01-03T19:04:35.076Z,8.57
2018-01-03T19:05:34.866Z,8.55
2018-01-03T19:06:35.941Z,8.59
2018-01-03T19:07:35.354Z,8.58
2018-01-03T19:08:34.746Z,8.59
2018-01-03T19:09:35.275Z,8.58
2018-01-03T19:10:35.233Z,8.58
2018-01-03T19:11:35.075Z,8.57
2018-01-03T19:12:34.644Z,8.55
2018-01-03T19:13:35.573Z,8.57
2018-01-03T19:14:35.215Z,8.57
2018-01-03T19:15:35.246Z,8.59
2018-01-03T19:16:35.474Z,8.57
2018-01-03T19:17:34.669Z,8.57
2018-01-03T19:18:35.152Z,8.57
2018-01-03T19:19:34.728Z,8.57
2018-01-03T19:20:35.192Z,8.55
2018-01-03T19:21:35.064Z,8.54
2018-01-03T19:22:34.663Z,8.54
2018-01-03T19:23:35.124Z,8.51
2018-01-03T19:24:36.516Z,8.48
2018-01-03T19:25:35.091Z,8.41
2018-01-03T19:26:34.435Z,8.36
2018-01-03T19:27:34.914Z,8.34
2018-01-03T19:28:36.672Z,8.33
2018-01-03T19:29:35.437Z,8.29
2018-01-03T19:30:35.538Z,8.29
2018-01-03T19:31:34.764Z,8.26
2018-01-03T19:32:35.750Z,8.24
2018-01-03T19:33:35.506Z,8.26
2018-01-03T19:34:35.955Z,8.24
2018-01-03T19:35:35.810Z,8.23
2018-01-03T19:36:34.562Z,8.26
2018-01-03T19:37:35.008Z,8.21
2018-01-03T19:38:35.071Z,8.19
2018-01-03T19:39:35.849Z,8.2
2018-01-03T19:40:34.538Z,8.17
2018-01-03T19:41:35.758Z,8.17
2018-01-03T19:42:35.614Z,8.19
2018-01-03T19:43:34.711Z,8.14
2018-01-03T19:44:35.118Z,8.16
2018-01-03T19:45:36.141Z,8.14
2018-01-03T19:46:35.244Z,8.16
2018-01-03T19:47:35.158Z,8.17
2018-01-03T19:48:34.956Z,8.13
2018-01-03T19:49:35.654Z,8.14
2018-01-03T19:50:35.673Z,8.12
2018-01-03T19:51:35.847Z,8.13
2018-01-03T19:52:35.602Z,8.14
2018-01-03T19:53:35.361Z,8.13
2018-01-03T19:54:34.966Z,8.13
2018-01-03T19:55:34.841Z,8.13
2018-01-03T19:56:35.178Z,8.1
2018-01-03T19:57:34.852Z,8.14
2018-01-03T19:58:34.700Z,8.14
2018-01-03T19:59:35.256Z,8.14
2018-01-03T20:00:34.629Z,8.16
2018-01-03T20:01:35.036Z,8.14
2018-01-03T20:02:34.684Z,8.16
2018-01-03T20:03:35.353Z,8.16
2018-01-03T20:04:35.103Z,8.17
2018-01-03T20:05:34.675Z,8.17
2018-01-03T20:06:35.241Z,8.19
2018-01-03T20:07:34.759Z,8.2
2018-01-03T20:08:35.406Z,8.2
2018-01-03T20:09:36.092Z,8.2
2018-01-03T20:10:35.159Z,8.2
2018-01-03T20:11:34.827Z,8.21
2018-01-03T20:12:35.599Z,8.27
2018-01-03T20:13:35.085Z,8.3
2018-01-03T20:14:34.604Z,8.3
2018-01-03T20:14:54.186Z,8.27
2018-01-03T20:15:53.884Z,8.29
2018-01-03T20:16:54.540Z,8.29
2018-01-03T20:17:54.802Z,8.3
2018-01-03T20:18:55.768Z,8.3
2018-01-03T20:19:57.450Z,8.29
2018-01-03T20:20:55.590Z,8.29
2018-01-03T20:21:56.441Z,8.27
2018-01-03T20:22:56.201Z,8.33
2018-01-03T20:23:54.126Z,8.34
2018-01-03T20:24:54.682Z,8.37
2018-01-03T20:25:55.437Z,8.37
2018-01-03T20:26:54.145Z,8.36
2018-01-03T20:27:55.977Z,8.33
2018-01-03T20:28:54.650Z,8.31
2018-01-03T20:29:54.668Z,8.34
2018-01-03T20:30:54.082Z,8.3
2018-01-03T20:31:29.748Z,8.31
2018-01-03T20:32:30.414Z,8.31
2018-01-03T20:33:30.138Z,8.3
2018-01-03T20:34:29.920Z,8.31
2018-01-03T20:35:29.404Z,8.34
2018-01-03T20:36:30.024Z,8.36
2018-01-03T20:37:29.541Z,8.36
2018-01-03T20:38:30.001Z,8.34
2018-01-03T20:39:30.268Z,8.33
2018-01-03T20:40:30.538Z,8.33
2018-01-03T20:41:29.674Z,8.37
2018-01-03T20:42:32.566Z,8.36
2018-01-03T20:43:30.240Z,8.36
2018-01-03T20:44:30.301Z,8.36
2018-01-03T20:45:30.810Z,8.34
2018-01-03T20:46:30.048Z,8.34
2018-01-03T20:47:31.311Z,8.34
2018-01-03T20:48:29.845Z,8.36
2018-01-03T20:49:29.509Z,8.34
2018-01-03T20:50:29.786Z,8.34
2018-01-03T20:51:30.356Z,8.3
2018-01-03T20:52:30.169Z,8.29
2018-01-03T20:53:29.998Z,8.29
2018-01-03T20:54:29.665Z,8.29
2018-01-03T20:55:30.389Z,8.3
2018-01-03T20:56:30.371Z,8.3
2018-01-03T20:57:30.115Z,8.33
2018-01-03T20:58:29.606Z,8.36
2018-01-03T20:59:30.316Z,8.33
2018-01-03T21:00:29.740Z,8.33
2018-01-03T21:01:30.748Z,8.37
2018-01-03T21:02:29.726Z,8.34
2018-01-03T21:03:30.317Z,8.36
2018-01-03T21:04:29.735Z,8.36
2018-01-03T21:05:30.136Z,8.37
2018-01-03T21:06:29.694Z,8.38
2018-01-03T21:07:30.960Z,8.37
2018-01-03T21:08:05.468Z,8.38
2018-01-03T21:08:28.114Z,8.36
2018-01-03T21:09:27.846Z,8.36
2018-01-03T21:10:27.748Z,8.41
2018-01-03T21:11:31.260Z,8.48
2018-01-03T21:12:29.375Z,8.49
2018-01-03T21:13:27.634Z,8.52
2018-01-03T21:14:29.435Z,8.51
2018-01-03T21:15:30.122Z,8.49
2018-01-03T21:16:27.736Z,8.52
2018-01-03T21:17:27.998Z,8.49
2018-01-03T21:18:28.328Z,8.45
2018-01-03T21:19:27.996Z,8.48
2018-01-03T21:20:29.524Z,8.49
2018-01-03T21:21:30.374Z,8.49
2018-01-03T21:22:28.264Z,8.49
2018-01-03T21:23:28.716Z,8.52
2018-01-03T21:24:28.183Z,8.52
2018-01-03T21:25:28.737Z,8.52
2018-01-03T21:26:28.580Z,8.52
2018-01-03T21:27:28.633Z,8.52
2018-01-03T21:28:28.494Z,8.54
2018-01-03T21:29:27.672Z,8.52
2018-01-03T21:30:28.986Z,8.48
2018-01-03T21:31:27.715Z,8.47
2018-01-03T21:32:28.096Z,8.45
2018-01-03T21:33:27.723Z,8.43
2018-01-03T21:34:27.769Z,8.4
2018-01-03T21:35:28.076Z,8.37
2018-01-03T21:36:28.106Z,8.36
2018-01-03T21:37:28.321Z,8.34
2018-01-03T21:38:27.794Z,8.34
2018-01-03T21:39:28.709Z,8.31
2018-01-03T21:40:35.616Z,8.3
2018-01-03T21:41:31.007Z,8.29
2018-01-03T21:42:28.512Z,8.27
2018-01-03T21:43:28.752Z,8.24
2018-01-03T21:44:29.801Z,8.24
2018-01-03T21:45:29.345Z,8.21
2018-01-03T21:46:29.650Z,8.17
2018-01-03T21:47:30.109Z,8.14
2018-01-03T21:48:27.910Z,8.1
2018-01-03T21:49:28.290Z,8.08
2018-01-03T21:50:28.780Z,8.03
2018-01-03T21:51:28.196Z,8.03
2018-01-03T21:52:28.313Z,8.01
2018-01-03T21:53:28.411Z,8.01
2018-01-03T21:54:27.746Z,7.98
2018-01-03T21:55:29.010Z,7.96
2018-01-03T21:56:29.347Z,7.96
2018-01-03T21:57:27.696Z,7.96
2018-01-03T21:59:28.665Z,7.96
2018-01-03T22:00:28.180Z,7.96
2018-01-03T22:01:28.053Z,7.95
2018-01-03T22:02:31.455Z,7.93
2018-01-03T22:03:31.570Z,7.95
2018-01-03T22:04:30.489Z,7.93
2018-01-03T22:05:28.733Z,7.93
2018-01-03T22:06:27.961Z,7.89
2018-01-03T22:07:29.756Z,7.93
2018-01-03T22:08:29.359Z,7.91
2018-01-03T22:09:27.891Z,7.91
2018-01-03T22:10:29.665Z,7.89
2018-01-03T22:11:29.643Z,7.88
2018-01-03T22:12:28.427Z,7.86
2018-01-03T22:13:31.425Z,7.85
2018-01-03T22:14:27.915Z,7.88
2018-01-03T22:15:28.108Z,7.86
2018-01-03T22:16:28.612Z,7.88
2018-01-03T22:17:28.561Z,7.88
2018-01-03T22:18:28.977Z,7.91
2018-01-03T22:19:29.008Z,7.91
2018-01-03T22:20:28.557Z,7.88
2018-01-03T22:21:27.908Z,7.86
2018-01-03T22:22:28.664Z,7.91
2018-01-03T22:23:28.306Z,7.86
2018-01-03T22:24:28.837Z,7.85
2018-01-03T22:25:28.191Z,7.86
2018-01-03T22:26:28.850Z,7.86
2018-01-03T22:27:28.577Z,7.84
2018-01-03T22:28:28.478Z,7.81
2018-01-03T22:29:28.770Z,7.78
2018-01-03T22:30:29.615Z,7.74
2018-01-03T22:31:28.361Z,7.71
2018-01-03T22:32:28.960Z,7.72
2018-01-03T22:33:28.687Z,7.69
2018-01-03T22:34:28.226Z,7.69
2018-01-03T22:35:30.086Z,7.67
2018-01-03T22:36:28.431Z,7.65
2018-01-03T22:37:28.093Z,7.65
2018-01-03T22:38:28.468Z,7.61
2018-01-03T22:39:28.359Z,7.61
2018-01-03T22:40:28.664Z,7.58
2018-01-03T22:41:28.301Z,7.58
2018-01-03T22:42:28.859Z,7.59
2018-01-03T22:43:29.057Z,7.59
2018-01-03T22:44:28.480Z,7.62
2018-01-03T22:45:27.951Z,7.57
2018-01-03T22:46:29.349Z,7.55
2018-01-03T22:47:29.584Z,7.55
2018-01-03T22:48:28.248Z,7.55
2018-01-03T22:49:28.637Z,7.58
2018-01-03T22:50:30.363Z,7.59
2018-01-03T22:51:29.012Z,7.59
2018-01-03T22:52:28.323Z,7.62
2018-01-03T22:53:28.565Z,7.64
2018-01-03T22:54:29.069Z,7.67
2018-01-03T22:55:28.629Z,7.68
2018-01-03T22:56:28.172Z,7.69
2018-01-03T22:57:28.961Z,7.67
2018-01-03T22:58:28.252Z,7.72
2018-01-03T22:59:28.862Z,7.75
2018-01-03T23:00:28.138Z,7.71
2018-01-03T23:01:29.006Z,7.74
2018-01-03T23:02:29.115Z,7.72
2018-01-03T23:03:29.249Z,7.74
2018-01-03T23:04:28.425Z,7.74
2018-01-03T23:05:29.051Z,7.75
2018-01-03T23:06:29.036Z,7.77
2018-01-03T23:07:28.325Z,7.74
2018-01-03T23:08:28.567Z,7.77
2018-01-03T23:09:28.059Z,7.8
2018-01-03T23:10:29.009Z,7.78
2018-01-03T23:11:28.231Z,7.77
2018-01-03T23:12:28.571Z,7.78
2018-01-03T23:13:29.327Z,7.75
2018-01-03T23:14:28.579Z,7.77
2018-01-03T23:15:29.115Z,7.74
2018-01-03T23:16:28.454Z,7.74
2018-01-03T23:17:29.604Z,7.74
2018-01-03T23:18:28.001Z,7.71
2018-01-03T23:19:30.928Z,7.71
2018-01-03T23:20:30.120Z,7.72
2018-01-03T23:21:28.384Z,7.72
2018-01-03T23:22:28.885Z,7.69
2018-01-03T23:23:29.474Z,7.68
2018-01-03T23:24:29.442Z,7.65
2018-01-03T23:25:28.925Z,7.62
2018-01-03T23:26:29.460Z,7.62
2018-01-03T23:27:29.001Z,7.61
2018-01-03T23:28:28.423Z,7.61
2018-01-03T23:29:29.247Z,7.55
2018-01-03T23:30:28.818Z,7.57
2018-01-03T23:31:28.431Z,7.58
2018-01-03T23:32:28.727Z,7.51
2018-01-03T23:33:28.290Z,7.48
2018-01-03T23:34:29.380Z,7.5
2018-01-03T23:35:29.455Z,7.53
2018-01-03T23:36:28.913Z,7.51
2018-01-03T23:37:28.534Z,7.48
2018-01-03T23:38:28.442Z,7.5
2018-01-03T23:39:29.176Z,7.51
2018-01-03T23:40:28.803Z,7.53
2018-01-03T23:41:29.146Z,7.51
2018-01-03T23:42:28.380Z,7.51
2018-01-03T23:43:29.139Z,7.53
2018-01-03T23:44:28.539Z,7.54
2018-01-03T23:45:29.412Z,7.54
2018-01-03T23:46:28.761Z,7.55
2018-01-03T23:47:28.768Z,7.55
2018-01-03T23:48:28.533Z,7.57
2018-01-03T23:49:28.217Z,7.58
2018-01-03T23:50:28.788Z,7.58
2018-01-03T23:51:28.168Z,7.59
2018-01-03T23:52:29.155Z,7.59
2018-01-03T23:53:28.948Z,7.62
2018-01-03T23:54:28.755Z,7.64
2018-01-03T23:55:28.428Z,7.65
2018-01-03T23:56:29.202Z,7.68
2018-01-03T23:57:28.926Z,7.65
2018-01-03T23:58:28.300Z,7.64
2018-01-03T23:59:14.276Z,7.62
